Time;durP1;ratioP1;P1;durP2;ratioP2;P2;SDS_P1;SDS_P2;PMS_P1;PMS_P2;Temp;Humidity;BMP_temperature;BMP_pressure;BME280_temperature;BME280_humidity;BME280_pressure;Samples;Min_cycle;Max_cycle;Signal;HPM_P1;HPM_P2
2021/08/31 08:38:22;;;;;;;37.95;17.40;;;19.90;99.90;;;;;;12159946;27;20475;-56
2021/08/31 08:44:09;;;;;;;35.92;17.33;;;20.30;99.90;;;;;;12157891;27;20051;-54
2021/08/31 08:49:56;;;;;;;29.65;15.77;;;21.20;99.90;;;;;;12162203;27;20047;-56
2021/08/31 08:55:44;;;;;;;24.88;14.77;;;21.80;99.90;;;;;;12163044;27;20051;-56
2021/08/31 09:01:41;;;;;;;30.25;15.48;;;21.90;99.90;;;;;;12160074;27;20043;-55
2021/08/31 09:07:29;;;;;;;28.92;14.32;;;22.00;99.90;;;;;;12149359;27;20590;-57
2021/08/31 09:13:20;;;;;;;26.50;14.25;;;21.90;99.90;;;;;;12190456;27;20509;-56
2021/08/31 09:19:08;;;;;;;26.65;13.43;;;21.90;99.90;;;;;;12199911;27;20055;-57
2021/08/31 09:24:59;;;;;;;26.35;13.55;;;22.10;99.90;;;;;;12173748;27;20047;-57
2021/08/31 09:30:57;;;;;;;22.35;11.50;;;22.20;99.50;;;;;;12168240;27;20044;-56
2021/08/31 09:36:44;;;;;;;21.00;11.60;;;22.30;99.40;;;;;;12149269;27;20048;-56
2021/08/31 09:42:30;;;;;;;18.75;11.63;;;22.70;98.90;;;;;;12149236;27;20059;-57
2021/08/31 09:48:21;;;;;;;25.88;13.23;;;22.60;98.10;;;;;;12117942;28;20062;-57
2021/08/31 09:54:22;;;;;;;18.23;11.48;;;22.60;97.70;;;;;;12121488;27;20036;-57
2021/08/31 10:00:13;;;;;;;30.88;12.02;;;22.70;97.80;;;;;;12110780;27;20481;-58
2021/08/31 10:06:02;;;;;;;21.38;12.20;;;22.90;97.90;;;;;;12103392;28;20131;-57
2021/08/31 10:11:49;;;;;;;22.48;12.32;;;23.00;97.00;;;;;;12094056;27;20668;-54
2021/08/31 10:17:38;;;;;;;23.33;13.10;;;23.30;97.10;;;;;;12088522;27;20507;-56
2021/08/31 10:23:28;;;;;;;20.33;11.00;;;23.40;95.50;;;;;;12122288;27;21453;-58
2021/08/31 10:29:29;;;;;;;26.95;12.70;;;23.50;96.00;;;;;;12122944;28;20415;-57
2021/08/31 10:35:55;;;;;;;20.58;11.88;;;23.30;94.90;;;;;;12068137;27;20052;-57
2021/08/31 10:41:46;;;;;;;19.25;11.77;;;22.90;95.70;;;;;;12118752;27;20116;-59
2021/08/31 10:47:36;;;;;;;20.05;12.35;;;23.00;96.00;;;;;;12119958;27;20044;-59
2021/08/31 11:00:49;;;;;;;20.58;11.18;;;23.20;94.60;;;;;;12141556;27;20051;-57
2021/08/31 11:06:36;;;;;;;20.27;12.30;;;23.40;94.60;;;;;;12162259;28;20054;-56
2021/08/31 11:12:28;;;;;;;24.75;13.40;;;23.60;94.10;;;;;;12161761;27;20043;-56
2021/08/31 11:18:19;;;;;;;25.47;14.60;;;23.70;93.40;;;;;;12160574;28;20517;-56
2021/08/31 11:24:08;;;;;;;20.25;15.75;;;23.40;93.20;;;;;;12161311;27;20048;-57
2021/08/31 11:29:57;;;;;;;31.10;16.52;;;23.30;93.30;;;;;;12161265;27;20054;-57
2021/08/31 11:35:45;;;;;;;16.25;11.65;;;23.60;93.00;;;;;;12160024;28;20426;-56
2021/08/31 11:41:36;;;;;;;20.13;12.70;;;23.80;92.50;;;;;;12147674;27;20521;-51
2021/08/31 11:47:23;;;;;;;19.33;12.85;;;24.00;92.50;;;;;;12125565;28;20093;-55
2021/08/31 11:53:19;;;;;;;18.42;11.98;;;23.70;91.50;;;;;;12124121;27;20052;-54
2021/08/31 11:59:06;;;;;;;20.05;12.55;;;23.50;91.30;;;;;;12105504;28;20527;-56
2021/08/31 12:05:06;;;;;;;23.00;12.57;;;23.60;91.70;;;;;;12110844;28;20052;-56
2021/08/31 12:10:55;;;;;;;19.92;12.60;;;24.00;90.90;;;;;;12155314;28;20044;-53
2021/08/31 12:16:43;;;;;;;15.85;11.60;;;24.40;90.30;;;;;;12158724;27;20035;-55
2021/08/31 12:22:33;;;;;;;22.50;13.13;;;24.70;89.40;;;;;;12158866;28;20040;-53
2021/08/31 12:28:22;;;;;;;20.92;12.27;;;24.70;87.60;;;;;;12158367;28;20526;-53
2021/08/31 12:34:27;;;;;;;17.40;10.07;;;24.60;88.50;;;;;;12158509;28;20131;-56
2021/08/31 12:40:18;;;;;;;13.95;8.45;;;24.80;87.00;;;;;;12150846;28;20050;-56
2021/08/31 12:46:07;;;;;;;17.13;10.05;;;25.00;85.90;;;;;;12121187;28;20498;-56
2021/08/31 12:51:56;;;;;;;12.18;8.13;;;24.90;83.20;;;;;;12121972;28;20442;-55
2021/08/31 12:57:42;;;;;;;11.98;7.97;;;25.00;83.40;;;;;;12118002;28;20083;-55
2021/08/31 13:03:31;;;;;;;22.92;11.25;;;25.30;82.70;;;;;;12109927;28;20036;-56
2021/08/31 13:09:20;;;;;;;15.02;9.85;;;25.40;79.20;;;;;;12078700;28;20439;-56
2021/08/31 13:15:07;;;;;;;14.90;10.60;;;25.00;80.20;;;;;;12113327;27;20111;-56
2021/08/31 13:20:55;;;;;;;16.15;11.57;;;25.20;81.20;;;;;;12097312;28;20044;-54
2021/08/31 13:26:44;;;;;;;16.25;9.50;;;25.20;80.40;;;;;;12127282;27;20643;-52
2021/08/31 13:32:31;;;;;;;1689.95;473.25;;;25.60;76.90;;;;;;12160789;27;20063;-58
2021/08/31 13:38:19;;;;;;;16.20;12.32;;;25.80;88.10;;;;;;12143083;27;20052;-59
2021/08/31 13:44:07;;;;;;;13.43;9.13;;;26.00;75.30;;;;;;12068350;27;85561;-56
2021/08/31 13:49:54;;;;;;;16.80;8.35;;;26.20;73.80;;;;;;12056982;28;20052;-56
2021/08/31 13:55:42;;;;;;;10.32;8.65;;;26.10;73.70;;;;;;12014362;27;20079;-57
2021/08/31 14:08:12;;;;;;;13.75;9.82;;;25.30;74.30;;;;;;12111752;27;20044;-56
2021/08/31 14:14:00;;;;;;;17.10;10.95;;;25.60;74.10;;;;;;12064158;28;20064;-55
2021/08/31 14:19:48;;;;;;;18.40;11.65;;;26.10;72.30;;;;;;12063072;27;20043;-58
2021/08/31 14:25:35;;;;;;;17.42;11.55;;;25.90;72.10;;;;;;12052943;28;20063;-56
2021/08/31 14:31:23;;;;;;;41.03;27.60;;;26.00;73.20;;;;;;12079275;28;20037;-57
2021/08/31 14:37:10;;;;;;;36.88;23.98;;;26.20;71.10;;;;;;12053868;28;20432;-57
2021/08/31 14:43:37;;;;;;;17.13;10.82;;;26.40;71.80;;;;;;12060631;28;20071;-56
2021/08/31 14:49:26;;;;;;;13.75;9.20;;;25.90;72.10;;;;;;12069635;28;20658;-53
2021/08/31 14:55:13;;;;;;;14.25;7.95;;;25.70;73.20;;;;;;12074921;28;20045;-54
2021/08/31 15:01:00;;;;;;;11.80;8.38;;;25.70;74.10;;;;;;12073494;28;20044;-56
2021/08/31 15:06:48;;;;;;;36.30;23.83;;;25.50;73.40;;;;;;12096266;28;20136;-56
2021/08/31 15:12:35;;;;;;;17.50;10.20;;;25.60;72.50;;;;;;12080693;28;20078;-51
2021/08/31 15:18:22;;;;;;;12.30;6.63;;;26.10;71.00;;;;;;12065457;27;20656;-55
2021/08/31 15:24:11;;;;;;;8.52;5.60;;;26.30;71.90;;;;;;12076574;28;20063;-49
2021/08/31 15:29:57;;;;;;;10.18;6.50;;;26.30;71.70;;;;;;12077119;28;20392;-53
2021/08/31 15:35:44;;;;;;;11.10;7.22;;;26.00;71.30;;;;;;12053179;28;20436;-64
2021/08/31 15:41:35;;;;;;;9.45;6.55;;;26.20;72.50;;;;;;12034061;28;20058;-62
2021/08/31 15:47:24;;;;;;;12.90;6.07;;;26.60;70.90;;;;;;12043930;28;20481;-68
2021/08/31 15:53:11;;;;;;;11.43;6.47;;;27.00;70.20;;;;;;12098842;27;20052;-53
2021/08/31 15:59:00;;;;;;;9.85;6.43;;;27.00;67.90;;;;;;12107486;27;20044;-51
2021/08/31 16:04:48;;;;;;;9.70;5.50;;;26.40;68.20;;;;;;12084407;27;20100;-55
2021/08/31 16:10:35;;;;;;;12.00;7.13;;;26.50;68.70;;;;;;12092170;27;20045;-53
2021/08/31 16:16:23;;;;;;;9.88;7.18;;;27.00;67.10;;;;;;12075240;28;20040;-54
2021/08/31 16:22:10;;;;;;;7.88;6.45;;;27.20;66.90;;;;;;12067382;27;20071;-54
2021/08/31 16:27:58;;;;;;;11.70;7.75;;;26.90;68.30;;;;;;12077541;28;20101;-54
2021/08/31 16:33:46;;;;;;;30.60;21.77;;;27.70;66.20;;;;;;12099201;28;20131;-60
2021/08/31 16:39:33;;;;;;;16.30;10.43;;;30.60;58.00;;;;;;12088892;27;20401;-60
2021/08/31 16:45:20;;;;;;;11.15;7.75;;;32.50;54.10;;;;;;12016752;28;20052;-60
2021/08/31 16:51:08;;;;;;;8.48;6.95;;;33.60;51.70;;;;;;12040472;28;20504;-59
2021/08/31 16:56:55;;;;;;;9.63;6.20;;;34.70;48.60;;;;;;12021353;28;27762;-61
2021/08/31 17:02:42;;;;;;;9.63;6.13;;;34.70;48.20;;;;;;12060931;28;20866;-61
2021/08/31 17:08:31;;;;;;;11.73;5.70;;;34.80;47.20;;;;;;12063022;28;20420;-61
2021/08/31 17:14:17;;;;;;;14.27;10.18;;;34.40;47.80;;;;;;12076410;27;20040;-61
2021/08/31 17:20:05;;;;;;;13.38;7.20;;;34.10;48.00;;;;;;12022724;27;20650;-61
2021/08/31 17:25:54;;;;;;;9.68;6.47;;;33.00;49.20;;;;;;12026548;28;20056;-60
2021/08/31 17:31:41;;;;;;;29.88;21.75;;;30.70;52.50;;;;;;12044960;27;20048;-62
2021/08/31 17:37:28;;;;;;;30.77;22.50;;;28.90;55.70;;;;;;12024978;27;20067;-60
2021/08/31 17:43:16;;;;;;;8.02;6.65;;;27.80;58.10;;;;;;12029199;28;20037;-59
2021/08/31 17:49:03;;;;;;;10.25;6.30;;;26.90;59.90;;;;;;12024473;27;20457;-58
2021/08/31 17:54:55;;;;;;;9.52;6.60;;;26.40;61.10;;;;;;12015471;27;20060;-60
2021/08/31 18:00:43;;;;;;;8.55;6.25;;;26.00;62.60;;;;;;12019961;27;20049;-59
2021/08/31 18:06:30;;;;;;;8.02;6.20;;;25.60;64.30;;;;;;12058500;28;20040;-66
2021/08/31 18:12:17;;;;;;;10.85;7.25;;;25.30;65.20;;;;;;12051688;28;20044;-54
2021/08/31 18:18:06;;;;;;;77.97;62.65;;;25.10;65.70;;;;;;12040891;27;20075;-62
2021/08/31 18:23:53;;;;;;;11.93;7.55;;;24.80;66.30;;;;;;12050109;27;20044;-60
2021/08/31 18:29:40;;;;;;;12.45;7.30;;;24.60;67.60;;;;;;12046325;28;20047;-54
2021/08/31 18:35:28;;;;;;;9.65;7.53;;;24.40;68.60;;;;;;12048923;27;20405;-49
2021/08/31 18:41:15;;;;;;;12.70;7.32;;;24.30;68.60;;;;;;12054902;27;20065;-51
2021/08/31 18:47:03;;;;;;;14.93;8.77;;;24.20;70.10;;;;;;12047593;28;20101;-51
2021/08/31 18:52:51;;;;;;;13.15;9.02;;;24.00;70.10;;;;;;12038479;27;20056;-47
2021/08/31 18:58:40;;;;;;;14.38;9.57;;;23.80;70.80;;;;;;12040671;28;20040;-50
2021/08/31 19:04:27;;;;;;;14.27;9.05;;;23.80;70.70;;;;;;12041460;28;20071;-49
2021/08/31 19:10:15;;;;;;;10.77;8.27;;;23.70;71.10;;;;;;12059107;27;20047;-52
2021/08/31 19:16:02;;;;;;;13.15;7.70;;;23.50;70.90;;;;;;12049994;28;20047;-54
2021/08/31 19:21:49;;;;;;;11.07;7.07;;;23.50;71.50;;;;;;12085503;28;20044;-53
2021/08/31 19:27:37;;;;;;;13.45;7.78;;;23.60;71.50;;;;;;12110146;28;20044;-54
2021/08/31 19:33:24;;;;;;;10.38;7.70;;;23.60;72.10;;;;;;12103951;27;20036;-53
2021/08/31 19:39:11;;;;;;;9.57;7.28;;;23.60;71.50;;;;;;12092804;27;20044;-53
2021/08/31 19:44:59;;;;;;;9.38;6.53;;;23.50;71.60;;;;;;12075992;27;20106;-48
2021/08/31 19:50:49;;;;;;;14.18;7.00;;;23.50;71.70;;;;;;12057197;27;20654;-49
2021/08/31 19:56:36;;;;;;;13.20;6.60;;;23.40;71.80;;;;;;12052825;28;20052;-52
2021/08/31 20:02:25;;;;;;;8.95;6.55;;;23.30;71.50;;;;;;12069089;28;21080;-52
2021/08/31 20:08:11;;;;;;;9.00;6.38;;;23.30;71.70;;;;;;12041897;27;20040;-50
2021/08/31 20:14:35;;;;;;;13.75;7.00;;;23.20;72.70;;;;;;12066178;27;20051;-53
2021/08/31 20:20:23;;;;;;;8.60;6.03;;;23.20;72.20;;;;;;12076169;28;20063;-52
2021/08/31 20:26:10;;;;;;;11.73;6.20;;;23.20;72.80;;;;;;12061107;28;20072;-51
2021/08/31 20:31:57;;;;;;;11.38;6.57;;;23.10;73.00;;;;;;12086209;27;20057;-54
2021/08/31 20:37:45;;;;;;;9.43;5.88;;;23.10;73.40;;;;;;12059858;27;20079;-52
2021/08/31 20:43:32;;;;;;;9.82;6.60;;;23.10;73.40;;;;;;12010094;27;20420;-50
2021/08/31 20:49:19;;;;;;;131.25;87.45;;;23.10;73.40;;;;;;12099457;27;20036;-52
2021/08/31 20:55:09;;;;;;;13.45;7.07;;;23.00;73.80;;;;;;12095239;28;20059;-56
2021/08/31 21:00:56;;;;;;;13.20;6.75;;;23.00;73.70;;;;;;12055792;28;20045;-54
2021/08/31 21:06:46;;;;;;;9.35;6.28;;;23.00;73.80;;;;;;12059828;28;20036;-55
2021/08/31 21:12:34;;;;;;;9.30;6.43;;;22.90;73.90;;;;;;12082945;28;20040;-53
2021/08/31 21:18:21;;;;;;;7.53;5.82;;;22.90;73.90;;;;;;12079661;28;20056;-54
2021/08/31 21:24:09;;;;;;;8.73;5.68;;;22.80;74.10;;;;;;12071787;28;20435;-55
2021/08/31 21:29:58;;;;;;;9.77;5.90;;;22.80;74.60;;;;;;12107721;27;20519;-55
2021/08/31 21:35:45;;;;;;;13.95;8.60;;;22.80;74.60;;;;;;12106245;28;20040;-50
2021/08/31 21:41:32;;;;;;;10.88;6.63;;;22.70;74.90;;;;;;12068331;28;21236;-50
2021/08/31 21:47:20;;;;;;;11.40;6.70;;;22.70;75.20;;;;;;12080889;27;20059;-50
2021/08/31 21:53:07;;;;;;;9.63;6.63;;;22.70;75.30;;;;;;12051823;28;20059;-51
2021/08/31 21:58:54;;;;;;;12.38;7.75;;;22.60;75.90;;;;;;12039338;27;20059;-49
2021/08/31 22:04:42;;;;;;;14.30;8.30;;;22.50;76.80;;;;;;12035964;28;20733;-49
2021/08/31 22:10:29;;;;;;;14.35;8.75;;;22.40;77.30;;;;;;12062746;27;20040;-51
2021/08/31 22:16:16;;;;;;;15.50;9.00;;;22.20;78.60;;;;;;12066223;28;20053;-55
2021/08/31 22:22:04;;;;;;;15.63;10.10;;;22.20;79.60;;;;;;12085711;28;20439;-50
2021/08/31 22:27:51;;;;;;;20.13;8.93;;;22.20;80.80;;;;;;12112747;28;20060;-52
2021/08/31 22:33:38;;;;;;;16.33;9.13;;;22.20;81.50;;;;;;12088864;28;20063;-50
2021/08/31 22:39:27;;;;;;;16.20;9.77;;;22.10;82.00;;;;;;12084518;28;20169;-54
2021/08/31 22:45:13;;;;;;;20.90;10.27;;;22.00;83.30;;;;;;12070589;28;20056;-52
2021/08/31 22:51:01;;;;;;;19.17;10.45;;;21.90;84.30;;;;;;12054724;27;20048;-52
